Time;durP1;ratioP1;P1;durP2;ratioP2;P2;SDS_P1;SDS_P2;PMS_P1;PMS_P2;Temp;Humidity;BMP_temperature;BMP_pressure;BME280_temperature;BME280_humidity;BME280_pressure;Samples;Min_cycle;Max_cycle;Signal;HPM_P1;HPM_P2
2024/04/06 00:01:04;;;;;;;6.53;3.70;;;;;;;13.07;45.58;95492.69;5026426;28;20032;-78
2024/04/06 00:03:29;;;;;;;7.97;3.67;;;;;;;13.02;45.73;95491.28;5025514;28;20101;-79
2024/04/06 00:05:54;;;;;;;10.80;4.10;;;;;;;12.96;45.62;95476.44;5025876;28;20447;-79
2024/04/06 00:08:20;;;;;;;6.88;3.60;;;;;;;13.00;45.87;95475.13;5027310;28;20025;-79
2024/04/06 00:10:46;;;;;;;7.95;3.30;;;;;;;12.95;45.89;95478.44;5025051;28;20557;-79
2024/04/06 00:13:11;;;;;;;8.70;3.75;;;;;;;12.98;45.96;95476.78;5027364;28;20099;-79
2024/04/06 00:15:36;;;;;;;7.32;3.55;;;;;;;12.90;46.04;95476.25;5024609;28;20018;-79
2024/04/06 00:18:02;;;;;;;5.53;3.30;;;;;;;12.94;46.13;95489.91;5025494;28;20029;-79
2024/04/06 00:20:28;;;;;;;8.98;3.58;;;;;;;12.93;46.28;95500.19;5024585;28;20112;-79
2024/04/06 00:22:54;;;;;;;7.43;3.70;;;;;;;12.94;46.47;95493.44;5025376;28;20029;-79
2024/04/06 00:25:20;;;;;;;10.63;4.05;;;;;;;12.86;46.63;95488.59;5026660;28;20025;-80
2024/04/06 00:27:45;;;;;;;6.40;3.78;;;;;;;12.85;46.69;95478.78;5026111;28;20037;-79
2024/04/06 00:30:10;;;;;;;10.70;4.07;;;;;;;12.86;46.83;95477.56;5025601;28;20431;-79
2024/04/06 00:32:36;;;;;;;6.78;4.05;;;;;;;12.84;46.66;95477.97;5024609;28;20017;-79
2024/04/06 00:35:01;;;;;;;8.00;4.22;;;;;;;12.82;46.62;95482.38;5027251;28;20114;-79
2024/04/06 00:37:27;;;;;;;6.95;3.72;;;;;;;12.80;46.64;95482.84;5025324;28;20049;-79
2024/04/06 00:39:52;;;;;;;6.85;3.63;;;;;;;12.74;46.61;95477.09;5025956;28;20499;-78
2024/04/06 00:42:17;;;;;;;6.93;3.45;;;;;;;12.77;46.56;95483.69;5025841;28;20076;-78
2024/04/06 00:44:43;;;;;;;7.03;3.90;;;;;;;12.72;46.57;95476.72;5024803;28;20037;-78
2024/04/06 00:47:08;;;;;;;6.93;3.78;;;;;;;12.68;47.18;95475.31;5026276;28;20104;-79
2024/04/06 00:49:34;;;;;;;6.53;3.55;;;;;;;12.71;47.04;95477.16;5024094;28;20053;-78
2024/04/06 00:52:00;;;;;;;8.93;3.38;;;;;;;12.67;47.12;95476.50;5026653;28;20036;-78
2024/04/06 00:54:25;;;;;;;4.82;2.92;;;;;;;12.70;46.83;95470.13;5026948;28;20029;-78
2024/04/06 00:56:51;;;;;;;4.43;2.90;;;;;;;12.66;47.04;95470.19;5026659;28;20056;-79
2024/04/06 00:59:17;;;;;;;5.43;2.88;;;;;;;12.59;46.93;95472.41;5023973;28;20036;-79
2024/04/06 01:01:42;;;;;;;6.88;3.03;;;;;;;12.58;46.97;95471.63;5024871;28;20108;-79
2024/04/06 01:04:08;;;;;;;4.85;2.88;;;;;;;12.54;47.20;95467.41;5024405;28;20029;-79
2024/04/06 01:06:35;;;;;;;4.65;2.80;;;;;;;12.50;47.16;95470.25;5024487;28;20384;-79
2024/04/06 01:09:00;;;;;;;5.13;2.60;;;;;;;12.44;47.04;95474.75;5024841;28;20503;-79
2024/04/06 01:11:26;;;;;;;5.47;2.60;;;;;;;12.43;47.65;95474.00;5023969;28;20033;-79
2024/04/06 01:13:51;;;;;;;9.70;2.83;;;;;;;12.36;47.47;95476.94;5025155;28;20803;-80
2024/04/06 01:16:17;;;;;;;4.55;2.60;;;;;;;12.33;47.67;95477.84;5025548;28;20428;-79
2024/04/06 01:18:42;;;;;;;5.65;2.60;;;;;;;12.26;47.76;95474.47;5026514;28;20427;-79
2024/04/06 01:21:07;;;;;;;5.20;2.70;;;;;;;12.31;47.64;95476.72;5025400;28;20029;-78
2024/04/06 01:23:35;;;;;;;6.88;2.58;;;;;;;12.30;47.70;95472.41;5026015;28;20053;-79
2024/04/06 01:26:00;;;;;;;5.45;2.65;;;;;;;12.27;47.94;95468.53;5024475;28;20557;-80
2024/04/06 01:28:26;;;;;;;4.00;2.40;;;;;;;12.24;48.22;95466.66;5023892;28;20500;-79
2024/04/06 01:30:51;;;;;;;4.30;2.40;;;;;;;12.19;48.18;95465.19;5024505;28;20544;-79
2024/04/06 01:33:16;;;;;;;4.80;2.67;;;;;;;12.19;48.22;95464.41;5025228;28;20500;-79
2024/04/06 01:35:42;;;;;;;5.03;2.55;;;;;;;12.13;48.19;95458.66;5024537;28;20032;-79
2024/04/06 01:38:07;;;;;;;6.55;2.50;;;;;;;12.18;48.30;95460.91;5023262;28;20038;-79
2024/04/06 01:40:33;;;;;;;7.07;2.95;;;;;;;12.16;48.20;95449.53;5024463;28;20033;-79
2024/04/06 01:42:58;;;;;;;5.75;2.50;;;;;;;12.14;48.23;95453.91;5007203;28;20030;-80
2024/04/06 01:45:23;;;;;;;6.28;3.00;;;;;;;12.19;48.23;95456.16;5007516;28;20057;-78
2024/04/06 01:47:49;;;;;;;5.63;2.50;;;;;;;12.14;48.59;95446.44;5024083;28;20033;-78
2024/04/06 01:50:14;;;;;;;6.72;2.33;;;;;;;12.05;48.32;95457.31;5023545;28;20067;-79
2024/04/06 01:52:39;;;;;;;4.75;2.85;;;;;;;12.07;48.33;95468.66;5026218;28;20148;-78
2024/04/06 01:55:06;;;;;;;5.70;2.63;;;;;;;12.02;48.52;95465.66;5023242;28;20029;-78
2024/04/06 01:57:31;;;;;;;4.68;2.53;;;;;;;12.03;48.83;95462.47;5026160;28;20139;-78
2024/04/06 01:59:57;;;;;;;5.00;2.38;;;;;;;11.98;48.66;95462.22;5023558;28;20025;-79
2024/04/06 02:02:23;;;;;;;4.88;2.65;;;;;;;12.02;48.63;95462.91;5025013;28;20491;-78
2024/04/06 02:04:49;;;;;;;5.07;2.42;;;;;;;12.02;48.60;95465.66;5025609;28;20110;-79
2024/04/06 02:07:15;;;;;;;5.45;2.50;;;;;;;11.99;48.99;95458.28;5024769;28;20026;-79
2024/04/06 02:09:41;;;;;;;4.85;2.40;;;;;;;11.85;49.04;95451.13;5024076;28;20022;-79
2024/04/06 02:12:07;;;;;;;3.38;2.08;;;;;;;11.92;48.84;95454.47;5023344;28;20052;-79
2024/04/06 02:14:32;;;;;;;7.07;3.10;;;;;;;11.85;49.12;95451.91;5024599;28;20037;-79
2024/04/06 02:16:59;;;;;;;5.90;2.33;;;;;;;11.80;49.11;95452.41;5024297;28;20063;-79
2024/04/06 02:19:24;;;;;;;4.80;2.35;;;;;;;11.81;48.84;95453.97;5024521;28;20220;-79
2024/04/06 02:21:50;;;;;;;5.85;2.33;;;;;;;11.75;49.00;95447.41;5023404;28;20038;-79
2024/04/06 02:24:17;;;;;;;7.97;2.50;;;;;;;11.76;49.26;95454.50;5023650;28;20063;-78
2024/04/06 02:26:42;;;;;;;4.15;2.20;;;;;;;11.73;49.32;95458.09;5023920;28;20072;-78
2024/04/06 02:29:08;;;;;;;6.38;2.47;;;;;;;11.70;48.97;95456.22;5023138;28;20068;-79
2024/04/06 02:31:33;;;;;;;4.50;2.55;;;;;;;11.69;48.69;95457.41;5024376;28;20063;-79
2024/04/06 02:33:58;;;;;;;6.32;2.25;;;;;;;11.65;48.57;95459.50;5023989;28;20026;-79
2024/04/06 02:36:24;;;;;;;3.55;1.77;;;;;;;11.62;48.54;95463.84;5024276;28;20108;-79
2024/04/06 02:38:50;;;;;;;3.17;1.60;;;;;;;11.61;48.39;95464.31;5022860;28;20057;-79
2024/04/06 02:41:15;;;;;;;4.47;1.85;;;;;;;11.58;48.30;95462.41;5025938;28;20103;-80
2024/04/06 02:43:40;;;;;;;2.67;1.60;;;;;;;11.53;48.52;95460.94;5027038;28;20044;-78
2024/04/06 02:46:06;;;;;;;3.78;1.70;;;;;;;11.49;48.50;95456.72;5028276;28;20524;-77
2024/04/06 02:48:31;;;;;;;5.38;1.90;;;;;;;11.47;48.76;95459.91;5028958;28;20033;-79
2024/04/06 02:50:57;;;;;;;4.85;2.22;;;;;;;11.43;48.79;95461.97;5027574;28;20032;-79
2024/04/06 02:53:22;;;;;;;3.72;2.20;;;;;;;11.35;48.81;95458.59;5029167;28;20504;-78
2024/04/06 02:55:48;;;;;;;6.13;1.90;;;;;;;11.35;48.85;95464.09;5027385;28;20049;-79
2024/04/06 02:58:13;;;;;;;6.57;2.38;;;;;;;11.34;48.91;95459.81;5027581;28;20044;-78
2024/04/06 03:00:39;;;;;;;5.38;2.40;;;;;;;11.34;48.97;95456.28;5027913;28;20021;-78
2024/04/06 03:03:04;;;;;;;4.18;1.70;;;;;;;11.37;48.82;95463.69;5026374;28;20124;-79
2024/04/06 03:05:30;;;;;;;4.72;1.95;;;;;;;11.34;49.02;95448.03;5027317;28;20049;-79
2024/04/06 03:07:56;;;;;;;3.55;2.10;;;;;;;11.35;48.77;95450.34;5027025;28;20112;-78
2024/04/06 03:10:21;;;;;;;4.78;2.03;;;;;;;11.36;49.21;95456.66;5012852;28;20056;-78
2024/04/06 03:12:46;;;;;;;5.78;2.20;;;;;;;11.30;49.41;95439.09;5028634;28;20112;-78
2024/04/06 03:15:12;;;;;;;5.70;2.20;;;;;;;11.29;49.52;95443.03;5027553;28;20469;-77
2024/04/06 03:17:37;;;;;;;3.45;2.17;;;;;;;11.25;49.39;95439.59;5026188;28;20021;-78
2024/04/06 03:20:04;;;;;;;5.05;2.35;;;;;;;11.26;49.85;95443.91;5026585;28;20025;-78
2024/04/06 03:22:30;;;;;;;3.75;2.20;;;;;;;11.24;49.50;95441.59;5010064;28;20068;-79
2024/04/06 03:24:57;;;;;;;4.40;2.65;;;;;;;11.26;49.72;95449.41;5025918;28;20086;-78
2024/04/06 03:27:23;;;;;;;6.18;2.63;;;;;;;11.20;49.74;95453.88;5026822;28;20064;-79
2024/04/06 03:29:48;;;;;;;4.10;2.38;;;;;;;11.17;49.97;95450.00;5025562;28;20488;-78
2024/04/06 03:32:14;;;;;;;3.70;2.40;;;;;;;11.11;50.14;95435.19;5027125;28;20056;-79
2024/04/06 03:34:40;;;;;;;3.65;2.17;;;;;;;11.14;49.92;95445.34;5025567;28;20040;-79
2024/04/06 03:37:07;;;;;;;4.80;2.90;;;;;;;11.15;50.07;95457.91;5026785;28;20502;-80
2024/04/06 03:39:32;;;;;;;6.22;2.35;;;;;;;11.09;50.28;95456.88;5009573;28;20033;-79
2024/04/06 03:41:58;;;;;;;6.35;2.55;;;;;;;11.06;50.27;95461.22;5027622;28;20083;-78
2024/04/06 03:44:24;;;;;;;6.18;2.50;;;;;;;11.00;50.42;95449.19;5027794;28;20033;-79
2024/04/06 03:46:49;;;;;;;6.60;2.42;;;;;;;11.10;50.32;95456.44;5024969;28;20522;-78
2024/04/06 03:49:14;;;;;;;9.23;3.60;;;;;;;11.09;50.48;95449.38;5028315;28;20021;-79
2024/04/06 03:51:40;;;;;;;11.40;3.10;;;;;;;11.00;50.48;95442.91;5024243;28;20220;-78
2024/04/06 03:54:05;;;;;;;9.48;2.92;;;;;;;10.96;50.78;95434.75;5009622;28;20454;-77
2024/04/06 03:56:30;;;;;;;9.13;3.13;;;;;;;10.97;50.53;95444.56;5008869;28;20030;-78
2024/04/06 03:58:57;;;;;;;8.73;3.03;;;;;;;10.94;50.65;95448.13;5009590;28;20108;-78
2024/04/06 04:01:22;;;;;;;5.95;2.90;;;;;;;10.95;50.66;95457.94;5027043;28;20057;-78
2024/04/06 04:03:47;;;;;;;8.60;3.55;;;;;;;10.90;50.66;95459.25;5025000;28;20060;-80
2024/04/06 04:06:13;;;;;;;11.95;3.67;;;;;;;10.90;50.70;95474.97;5026154;28;20020;-78
2024/04/06 04:08:38;;;;;;;13.38;4.63;;;;;;;10.82;50.88;95471.56;5026178;28;20033;-78
2024/04/06 04:11:04;;;;;;;6.55;3.30;;;;;;;10.82;50.93;95465.31;5027361;28;20026;-78
2024/04/06 04:13:29;;;;;;;9.00;3.58;;;;;;;10.84;50.90;95469.19;5025973;28;20110;-80
2024/04/06 04:15:55;;;;;;;6.63;3.28;;;;;;;10.84;50.72;95473.94;5009380;28;20076;-78
2024/04/06 04:18:20;;;;;;;8.40;4.60;;;;;;;10.89;50.60;95473.41;5025026;28;20095;-79
2024/04/06 04:20:45;;;;;;;14.18;3.88;;;;;;;10.88;50.74;95469.88;5027050;28;20025;-77
2024/04/06 04:23:11;;;;;;;8.98;3.70;;;;;;;10.75;51.15;95460.72;5030100;28;20029;-79
2024/04/06 04:25:37;;;;;;;11.35;4.00;;;;;;;10.77;51.29;95468.56;5026042;28;20026;-78
2024/04/06 04:28:02;;;;;;;7.60;4.18;;;;;;;10.70;51.33;95461.22;5027030;28;20092;-80
2024/04/06 04:30:28;;;;;;;10.55;5.22;;;;;;;10.62;51.44;95462.59;5024180;28;20056;-78
2024/04/06 04:32:53;;;;;;;11.80;5.07;;;;;;;10.64;51.66;95477.44;5025876;28;20021;-78
2024/04/06 04:35:19;;;;;;;11.15;4.18;;;;;;;10.63;51.71;95472.38;5025905;28;20120;-78
2024/04/06 04:37:45;;;;;;;11.43;5.00;;;;;;;10.67;51.59;95480.53;5026352;28;20038;-79
2024/04/06 04:40:10;;;;;;;11.38;5.18;;;;;;;10.71;51.62;95495.78;5024999;28;20051;-80
2024/04/06 04:42:36;;;;;;;8.68;4.65;;;;;;;10.67;51.41;95495.09;5024656;28;20073;-79
2024/04/06 04:45:10;;;;;;;10.95;5.30;;;;;;;10.68;51.44;95490.38;5025083;28;20037;-80
2024/04/06 04:47:35;;;;;;;12.02;5.30;;;;;;;10.74;51.42;95499.66;5009787;28;20064;-78
2024/04/06 04:50:02;;;;;;;14.52;5.68;;;;;;;10.71;51.14;95495.78;5028514;28;20029;-79
2024/04/06 04:52:28;;;;;;;12.65;5.38;;;;;;;10.73;51.30;95503.63;5026065;28;20059;-79
2024/04/06 04:54:53;;;;;;;15.88;6.10;;;;;;;10.69;51.16;95498.19;5025237;28;20536;-79
2024/04/06 04:57:20;;;;;;;11.68;5.75;;;;;;;10.73;51.21;95500.88;5026141;28;20025;-79
2024/04/06 04:59:45;;;;;;;13.15;5.05;;;;;;;10.75;51.10;95496.47;5025495;28;20502;-79
2024/04/06 05:02:10;;;;;;;10.02;5.22;;;;;;;10.77;51.22;95496.81;5009942;28;20072;-79
2024/04/06 05:04:36;;;;;;;11.40;5.45;;;;;;;10.82;50.93;95495.56;5025849;28;20025;-78
2024/04/06 05:07:01;;;;;;;12.63;5.25;;;;;;;10.85;51.10;95501.00;5025121;28;20060;-78
2024/04/06 05:09:26;;;;;;;16.75;5.53;;;;;;;10.89;51.14;95507.19;5025057;28;20396;-80
2024/04/06 05:11:52;;;;;;;13.00;4.80;;;;;;;10.92;50.98;95508.31;5026456;28;20025;-80
2024/04/06 05:14:17;;;;;;;17.33;4.72;;;;;;;10.95;50.79;95515.72;5024413;28;20329;-78
2024/04/06 05:16:42;;;;;;;12.60;4.28;;;;;;;11.00;50.73;95517.19;5026053;28;20167;-79
2024/04/06 05:19:09;;;;;;;16.63;6.25;;;;;;;11.07;50.53;95517.84;5024497;28;20021;-79
2024/04/06 05:21:34;;;;;;;13.88;5.75;;;;;;;11.08;50.41;95518.59;5024219;28;20029;-79
2024/04/06 05:24:00;;;;;;;14.25;5.25;;;;;;;11.12;50.23;95516.53;5025002;28;20499;-79
2024/04/06 05:26:25;;;;;;;12.10;5.22;;;;;;;11.16;50.01;95520.00;5025117;28;20033;-79
2024/04/06 05:28:50;;;;;;;23.65;5.85;;;;;;;11.18;49.95;95514.81;5026737;28;20099;-79
2024/04/06 05:31:17;;;;;;;15.43;4.95;;;;;;;11.17;49.61;95503.03;5037688;28;20146;-80
2024/04/06 05:33:42;;;;;;;11.50;5.10;;;;;;;11.22;49.53;95507.28;5008814;28;20028;-79
2024/04/06 05:36:08;;;;;;;11.85;4.53;;;;;;;11.23;49.56;95497.03;5023799;28;20482;-80
2024/04/06 05:38:34;;;;;;;10.45;4.60;;;;;;;11.31;49.46;95512.19;5024112;28;20084;-80
2024/04/06 05:40:59;;;;;;;8.43;4.22;;;;;;;11.36;49.38;95500.69;5025857;28;20056;-80
2024/04/06 05:43:24;;;;;;;9.90;3.88;;;;;;;11.41;49.05;95511.16;5025222;28;20043;-79
2024/04/06 05:46:00;;;;;;;9.45;3.60;;;;;;;11.50;48.84;95511.34;5026237;28;20568;-80
2024/04/06 05:48:25;;;;;;;5.90;3.28;;;;;;;11.49;48.74;95500.78;5023498;28;20087;-80
2024/04/06 05:50:50;;;;;;;7.15;3.28;;;;;;;11.58;48.85;95514.72;5007898;28;20033;-80
2024/04/06 05:53:16;;;;;;;7.60;3.83;;;;;;;11.61;48.62;95509.13;5025582;28;20108;-80
2024/04/06 05:55:41;;;;;;;11.50;4.03;;;;;;;11.67;48.76;95506.63;5024258;28;20029;-79
2024/04/06 05:58:07;;;;;;;8.30;3.53;;;;;;;11.72;48.71;95511.63;5024213;28;20100;-80
2024/04/06 06:00:32;;;;;;;8.13;3.30;;;;;;;11.85;48.43;95507.00;5023830;28;20060;-86
2024/04/06 06:02:57;;;;;;;6.40;2.97;;;;;;;11.87;48.27;95504.63;5006515;28;20393;-78
2024/04/06 06:05:23;;;;;;;6.20;3.28;;;;;;;11.86;48.20;95502.25;5024275;28;20562;-78
2024/04/06 06:07:49;;;;;;;6.30;2.53;;;;;;;11.85;48.33;95504.25;5025794;28;20495;-78
2024/04/06 06:10:15;;;;;;;4.55;2.83;;;;;;;11.85;48.51;95501.50;5024533;28;20029;-78
2024/04/06 06:12:40;;;;;;;6.57;3.30;;;;;;;11.92;48.45;95506.03;5024142;28;20124;-78
2024/04/06 06:15:06;;;;;;;5.68;2.88;;;;;;;11.96;48.52;95493.75;5023923;28;20468;-78
2024/04/06 06:17:31;;;;;;;5.00;2.67;;;;;;;12.02;48.60;95510.53;5027534;28;20036;-79
2024/04/06 06:19:57;;;;;;;10.75;3.13;;;;;;;12.16;48.79;95503.88;5011502;28;20113;-79
2024/04/06 06:22:22;;;;;;;3.88;2.50;;;;;;;12.22;48.60;95505.69;5026738;28;20029;-79
2024/04/06 06:24:51;;;;;;;5.30;2.38;;;;;;;12.33;48.41;95512.88;5028191;28;20112;-78
2024/04/06 06:27:16;;;;;;;5.90;2.58;;;;;;;12.36;48.11;95507.28;5026581;28;20022;-78
2024/04/06 06:29:42;;;;;;;5.55;2.33;;;;;;;12.48;47.96;95506.56;5028131;28;20099;-78
2024/04/06 06:32:07;;;;;;;4.95;2.22;;;;;;;12.52;47.69;95509.22;5010193;28;20488;-78
2024/04/06 06:34:33;;;;;;;3.60;2.20;;;;;;;12.50;47.64;95506.13;5029005;28;20033;-76
2024/04/06 06:36:58;;;;;;;3.60;2.47;;;;;;;12.57;47.73;95510.69;5027445;28;20021;-79
2024/04/06 06:39:24;;;;;;;5.50;2.10;;;;;;;12.67;47.16;95509.59;5009450;28;20053;-78
2024/04/06 06:41:51;;;;;;;3.67;2.20;;;;;;;12.76;47.08;95507.75;5019552;28;20026;-77
2024/04/06 06:44:17;;;;;;;4.20;2.60;;;;;;;12.78;46.69;95518.34;5027614;28;20140;-78
2024/04/06 06:46:42;;;;;;;4.70;2.50;;;;;;;12.85;47.06;95514.63;5027659;28;20067;-77
2024/04/06 06:49:09;;;;;;;8.18;2.88;;;;;;;12.96;46.77;95529.69;5027848;28;20468;-76
2024/04/06 06:51:35;;;;;;;5.32;2.92;;;;;;;12.95;46.65;95516.28;5028706;28;20787;-79
2024/04/06 06:54:00;;;;;;;8.68;3.33;;;;;;;13.01;46.50;95518.06;5028119;28;20029;-77
2024/04/06 06:56:26;;;;;;;6.97;3.05;;;;;;;13.18;46.08;95531.78;5026810;28;20419;-78
2024/04/06 06:58:52;;;;;;;5.93;3.17;;;;;;;13.24;45.91;95536.34;5028874;28;20029;-77
2024/04/06 07:01:17;;;;;;;4.45;2.83;;;;;;;13.20;45.90;95519.13;5009771;28;20026;-78
2024/04/06 07:03:43;;;;;;;7.85;2.95;;;;;;;13.42;45.46;95535.84;5010960;28;20040;-77
2024/04/06 07:06:12;;;;;;;7.15;2.78;;;;;;;13.55;45.03;95531.09;5027152;28;20062;-78
2024/04/06 07:08:41;;;;;;;5.78;2.72;;;;;;;13.64;44.86;95524.88;5027712;28;20029;-78
2024/04/06 07:11:07;;;;;;;7.50;3.00;;;;;;;13.78;44.37;95523.69;5026373;28;20423;-77
2024/04/06 07:13:32;;;;;;;5.97;3.33;;;;;;;13.87;44.20;95540.34;5026683;28;20022;-78
2024/04/06 07:16:08;;;;;;;5.88;3.03;;;;;;;13.98;44.01;95542.78;5026930;28;20123;-78
2024/04/06 07:18:34;;;;;;;8.52;4.05;;;;;;;14.07;44.12;95535.38;5009328;28;20037;-77
2024/04/06 07:21:00;;;;;;;6.05;2.85;;;;;;;14.22;43.79;95527.38;5027016;28;20377;-78
2024/04/06 07:23:26;;;;;;;5.88;2.80;;;;;;;14.35;43.40;95525.34;5009314;28;20033;-77
2024/04/06 07:25:51;;;;;;;5.25;3.15;;;;;;;14.58;42.98;95535.25;5026937;28;20039;-77
2024/04/06 07:28:17;;;;;;;8.98;3.30;;;;;;;14.71;42.37;95534.44;5026322;28;20033;-77
2024/04/06 07:30:43;;;;;;;5.40;2.88;;;;;;;14.78;42.12;95532.16;5026463;28;20048;-77
2024/04/06 07:33:08;;;;;;;7.00;2.97;;;;;;;14.85;42.27;95534.69;5026547;28;20112;-79
2024/04/06 07:35:34;;;;;;;9.82;3.30;;;;;;;14.99;42.20;95527.09;5026915;28;20104;-78
2024/04/06 07:37:59;;;;;;;7.20;2.95;;;;;;;15.02;42.21;95510.34;5028284;28;20041;-78
2024/04/06 07:40:24;;;;;;;8.40;3.50;;;;;;;15.20;41.99;95512.47;5026773;28;20078;-78
2024/04/06 07:42:51;;;;;;;8.45;3.33;;;;;;;15.41;41.34;95522.72;5028337;28;20103;-78
2024/04/06 07:45:17;;;;;;;7.00;2.88;;;;;;;15.53;41.43;95523.84;5027198;28;20084;-79
2024/04/06 07:47:42;;;;;;;6.82;3.58;;;;;;;15.61;40.78;95516.81;5026739;28;20025;-76
2024/04/06 07:50:07;;;;;;;6.70;3.08;;;;;;;15.74;40.76;95521.50;5009352;28;20044;-78
2024/04/06 07:52:34;;;;;;;6.32;2.75;;;;;;;15.85;40.17;95514.31;5027817;28;20041;-79
2024/04/06 07:54:59;;;;;;;6.90;3.38;;;;;;;16.01;40.38;95516.06;5038427;28;20029;-79
2024/04/06 07:57:25;;;;;;;9.57;3.30;;;;;;;16.10;40.11;95501.41;5025826;28;20140;-78
2024/04/06 07:59:50;;;;;;;7.53;2.78;;;;;;;16.37;39.49;95520.13;5026562;28;20030;-77
2024/04/06 08:02:16;;;;;;;7.03;4.32;;;;;;;16.52;39.14;95512.75;5006651;28;20116;-75
2024/04/06 08:04:41;;;;;;;5.10;2.40;;;;;;;16.64;38.92;95513.81;5027772;28;20480;-73
2024/04/06 08:07:07;;;;;;;8.82;3.72;;;;;;;16.81;39.17;95506.75;5024934;28;20049;-78
2024/04/06 08:09:32;;;;;;;6.32;2.83;;;;;;;16.97;38.71;95506.44;5025836;28;20464;-77
2024/04/06 08:11:58;;;;;;;6.97;3.03;;;;;;;17.18;38.56;95510.22;5025868;28;20041;-77
2024/04/06 08:14:23;;;;;;;7.82;3.15;;;;;;;17.33;38.58;95506.81;5026267;28;20116;-77
2024/04/06 08:16:48;;;;;;;10.20;3.63;;;;;;;17.57;37.94;95518.00;5026628;28;20036;-76
2024/04/06 08:19:14;;;;;;;8.82;3.10;;;;;;;17.74;37.60;95516.41;5024259;28;20021;-78
2024/04/06 08:21:39;;;;;;;7.45;3.60;;;;;;;17.90;37.21;95515.28;5028139;28;20047;-76
2024/04/06 08:24:05;;;;;;;6.15;3.00;;;;;;;18.07;37.53;95524.78;5026303;28;20025;-76
2024/04/06 08:26:30;;;;;;;10.30;3.55;;;;;;;18.26;37.08;95515.06;5026461;28;20033;-75
2024/04/06 08:28:56;;;;;;;8.45;3.28;;;;;;;18.48;36.38;95508.44;5026187;28;20418;-77
2024/04/06 08:31:21;;;;;;;7.72;3.83;;;;;;;18.83;35.66;95511.44;5026616;28;20029;-75
2024/04/06 08:33:47;;;;;;;9.95;3.55;;;;;;;19.06;35.14;95509.81;5025901;28;20017;-76
2024/04/06 08:36:13;;;;;;;11.38;3.60;;;;;;;19.35;34.52;95500.72;5024597;28;20022;-76
2024/04/06 08:38:39;;;;;;;17.90;5.43;;;;;;;19.60;33.96;95507.72;5025144;28;20099;-77
2024/04/06 08:41:08;;;;;;;7.95;3.15;;;;;;;19.83;33.82;95504.03;5007186;28;20025;-78
2024/04/06 08:43:43;;;;;;;9.13;2.67;;;;;;;20.02;33.60;95499.00;5009137;28;20037;-78
2024/04/06 08:46:08;;;;;;;16.80;3.03;;;;;;;20.21;34.04;95499.50;5025795;28;20026;-78
2024/04/06 08:48:38;;;;;;;7.57;2.67;;;;;;;20.43;33.49;95502.59;5025754;28;20040;-76
2024/04/06 08:51:05;;;;;;;7.60;3.05;;;;;;;20.73;32.65;95498.91;5010157;28;20124;-78
2024/04/06 08:53:30;;;;;;;12.75;3.15;;;;;;;21.03;32.79;95496.69;5007645;28;20033;-75
2024/04/06 08:56:00;;;;;;;9.82;2.97;;;;;;;21.24;32.75;95500.22;5027397;28;20342;-81
2024/04/06 08:58:25;;;;;;;11.30;3.10;;;;;;;21.54;32.07;95503.56;5007429;28;20539;-79
2024/04/06 09:00:51;;;;;;;11.73;2.92;;;;;;;21.80;31.35;95497.94;5027487;28;20113;-76
2024/04/06 09:03:17;;;;;;;7.78;3.10;;;;;;;22.06;30.76;95498.59;5024494;28;20099;-80
2024/04/06 09:05:43;;;;;;;12.68;4.28;;;;;;;22.33;30.01;95504.91;5010784;28;20029;-76
2024/04/06 09:08:13;;;;;;;15.02;3.05;;;;;;;22.55;29.66;95495.88;5034107;28;20030;-76
2024/04/06 09:10:39;;;;;;;14.30;3.85;;;;;;;22.85;29.86;95501.84;5024943;28;20525;-75
2024/04/06 09:13:04;;;;;;;10.45;2.70;;;;;;;23.13;29.30;95494.28;5025318;28;20187;-75
2024/04/06 09:15:32;;;;;;;6.55;2.58;;;;;;;23.38;28.71;95489.72;5023439;28;20025;-77
2024/04/06 09:18:01;;;;;;;7.35;2.60;;;;;;;23.75;27.82;95486.72;5008598;28;20025;-77
2024/04/06 09:20:26;;;;;;;10.80;3.13;;;;;;;24.03;27.18;95481.09;5007381;28;20026;-78
2024/04/06 09:22:54;;;;;;;7.13;2.53;;;;;;;24.36;26.68;95487.91;5026405;28;20439;-77
2024/04/06 09:25:22;;;;;;;5.03;2.35;;;;;;;24.72;26.09;95474.00;5023829;28;20030;-76
2024/04/06 09:27:47;;;;;;;6.07;2.25;;;;;;;25.05;25.71;95484.31;5007420;28;20029;-74
2024/04/06 09:30:13;;;;;;;3.63;1.98;;;;;;;25.35;25.36;95473.94;5008146;28;20025;-74
2024/04/06 09:32:39;;;;;;;5.50;1.73;;;;;;;25.60;24.83;95474.00;5023246;28;20101;-75
2024/04/06 09:35:05;;;;;;;6.38;1.90;;;;;;;25.84;24.86;95478.94;5024860;28;20476;-72
2024/04/06 09:37:36;;;;;;;7.93;1.92;;;;;;;26.19;24.65;95475.28;5006710;28;20080;-73
2024/04/06 09:40:03;;;;;;;5.05;2.47;;;;;;;26.44;24.25;95464.81;5024724;28;20028;-73
2024/04/06 09:42:31;;;;;;;10.38;3.05;;;;;;;26.50;24.26;95457.06;5024402;28;20037;-74
2024/04/06 09:44:56;;;;;;;6.30;2.30;;;;;;;26.60;24.20;95463.06;5023897;28;20092;-74
2024/04/06 09:47:24;;;;;;;4.75;2.65;;;;;;;26.68;23.24;95444.28;5008095;28;20072;-75
2024/04/06 09:49:50;;;;;;;190.73;13.45;;;;;;;26.58;22.86;95437.47;5023345;28;20022;-75
2024/04/06 09:52:16;;;;;;;7.43;2.60;;;;;;;26.52;22.97;95428.31;5012439;28;20014;-73
2024/04/06 09:54:43;;;;;;;8.18;2.38;;;;;;;26.47;22.93;95430.66;5027312;28;20044;-74
2024/04/06 09:57:09;;;;;;;5.30;1.60;;;;;;;26.70;22.88;95425.50;5028655;28;20120;-73
2024/04/06 09:59:34;;;;;;;4.43;1.88;;;;;;;26.88;22.84;95411.94;5011203;28;20049;-73
2024/04/06 10:02:01;;;;;;;5.70;1.88;;;;;;;26.96;22.67;95416.47;5027761;28;20044;-73
2024/04/06 10:04:35;;;;;;;3.28;1.50;;;;;;;27.12;21.95;95405.47;5028488;28;20140;-73
2024/04/06 10:07:03;;;;;;;4.40;1.85;;;;;;;27.27;21.77;95406.53;5026984;28;20026;-76
2024/04/06 10:09:35;;;;;;;3.60;1.55;;;;;;;27.45;21.65;95407.00;5012954;28;20029;-89
2024/04/06 10:12:05;;;;;;;3.80;1.67;;;;;;;27.51;21.46;95391.50;5028352;28;20092;-74
2024/04/06 10:14:31;;;;;;;5.50;1.38;;;;;;;27.71;21.38;95393.00;5028838;28;20511;-74
2024/04/06 10:17:09;;;;;;;5.35;2.90;;;;;;;27.74;21.19;95402.44;5027894;28;20492;-73
2024/04/06 10:19:35;;;;;;;7.40;3.45;;;;;;;27.96;20.74;95396.41;5011034;28;20511;-74
2024/04/06 10:22:05;;;;;;;5.47;1.50;;;;;;;28.13;21.02;95398.91;5028110;28;20036;-72
2024/04/06 10:24:31;;;;;;;6.22;1.63;;;;;;;28.28;20.80;95389.91;5010218;28;20025;-73
2024/04/06 10:26:57;;;;;;;3.63;1.23;;;;;;;28.45;20.42;95383.94;5028707;28;20111;-73
2024/04/06 10:29:23;;;;;;;4.22;1.20;;;;;;;28.50;19.71;95391.50;5010102;28;20037;-73
2024/04/06 10:31:49;;;;;;;3.85;2.33;;;;;;;28.50;19.81;95383.03;5029409;28;20499;-73
2024/04/06 10:34:16;;;;;;;6.43;3.03;;;;;;;28.62;18.71;95378.69;5027504;28;20026;-72
2024/04/06 10:36:42;;;;;;;10.98;5.03;;;;;;;28.76;18.50;95373.75;5026682;28;20030;-74
2024/04/06 10:39:08;;;;;;;3.08;1.50;;;;;;;29.14;17.63;95370.63;5011178;28;20496;-74
2024/04/06 10:41:35;;;;;;;5.40;1.30;;;;;;;29.54;17.70;95362.72;5026797;28;20049;-75
2024/04/06 10:44:01;;;;;;;3.22;1.33;;;;;;;29.93;17.93;95361.66;5012404;28;20030;-75
2024/04/06 10:46:27;;;;;;;8.73;3.00;;;;;;;30.17;17.37;95369.06;5026496;28;20041;-76
2024/04/06 10:48:53;;;;;;;7.80;2.45;;;;;;;30.50;16.32;95373.00;5028306;28;20025;-77
2024/04/06 10:51:18;;;;;;;3.38;1.20;;;;;;;31.12;15.71;95356.97;5026864;28;20025;-77
2024/04/06 10:53:45;;;;;;;2.72;1.27;;;;;;;31.82;14.99;95355.75;5027619;28;20030;-75
2024/04/06 10:56:10;;;;;;;4.43;1.30;;;;;;;32.05;15.30;95356.47;5010823;28;20074;-74
2024/04/06 10:58:36;;;;;;;297.25;16.58;;;;;;;32.56;15.46;95346.91;5026591;28;20097;-76
2024/04/06 11:01:10;;;;;;;6.43;1.83;;;;;;;32.86;14.53;95353.78;5010667;28;20090;-74
2024/04/06 11:03:36;;;;;;;19.77;3.08;;;;;;;32.77;14.90;95341.69;5027331;28;20061;-78
2024/04/06 11:06:03;;;;;;;14.38;1.80;;;;;;;33.09;18.22;95345.94;5027822;28;20056;-74
2024/04/06 11:08:29;;;;;;;16.17;2.22;;;;;;;33.68;15.45;95339.66;5027656;28;20468;-75
2024/04/06 11:10:55;;;;;;;4.10;1.52;;;;;;;34.05;14.73;95332.09;5028418;28;20041;-75
2024/04/06 11:13:22;;;;;;;7.95;2.92;;;;;;;34.40;14.83;95334.97;5026848;28;20090;-75
2024/04/06 11:15:47;;;;;;;13.30;3.35;;;;;;;34.54;15.41;95336.19;5025752;28;20070;-75
2024/04/06 11:18:13;;;;;;;6.40;2.38;;;;;;;34.69;13.62;95334.47;5028347;28;20456;-72
2024/04/06 11:20:38;;;;;;;4.22;2.40;;;;;;;34.78;13.00;95319.50;5025241;28;20062;-74
2024/04/06 11:23:03;;;;;;;4.68;1.70;;;;;;;35.04;13.28;95329.47;5028386;28;20508;-75
2024/04/06 11:25:29;;;;;;;4.22;1.98;;;;;;;35.13;13.35;95320.97;5025657;28;20024;-84